sensor_id;sensor_type;location;lat;lon;timestamp;P1;durP1;ratioP1;P2;durP2;ratioP2
13311;SDS011;34033;48.672;9.376;2022-12-29T00:02:12;8.03;;;5.50;;
13311;SDS011;34033;48.672;9.376;2022-12-29T00:04:37;12.90;;;5.73;;
13311;SDS011;34033;48.672;9.376;2022-12-29T00:07:03;9.50;;;6.67;;
13311;SDS011;34033;48.672;9.376;2022-12-29T00:09:32;10.77;;;6.40;;
13311;SDS011;34033;48.672;9.376;2022-12-29T00:11:58;8.93;;;6.23;;
13311;SDS011;34033;48.672;9.376;2022-12-29T00:14:24;8.87;;;5.87;;
13311;SDS011;34033;48.672;9.376;2022-12-29T00:17:08;9.33;;;5.60;;
13311;SDS011;34033;48.672;9.376;2022-12-29T00:19:33;9.97;;;5.70;;
13311;SDS011;34033;48.672;9.376;2022-12-29T00:22:17;8.00;;;5.27;;
13311;SDS011;34033;48.672;9.376;2022-12-29T00:25:01;8.37;;;5.93;;
13311;SDS011;34033;48.672;9.376;2022-12-29T00:27:34;9.73;;;6.20;;
13311;SDS011;34033;48.672;9.376;2022-12-29T00:30:22;9.70;;;6.07;;
13311;SDS011;34033;48.672;9.376;2022-12-29T00:33:14;7.47;;;5.57;;
13311;SDS011;34033;48.672;9.376;2022-12-29T00:36:06;9.43;;;6.17;;
13311;SDS011;34033;48.672;9.376;2022-12-29T00:38:37;9.10;;;5.80;;
13311;SDS011;34033;48.672;9.376;2022-12-29T00:41:23;10.03;;;5.90;;
13311;SDS011;34033;48.672;9.376;2022-12-29T00:44:08;8.37;;;5.43;;
13311;SDS011;34033;48.672;9.376;2022-12-29T00:46:36;7.07;;;4.83;;
13311;SDS011;34033;48.672;9.376;2022-12-29T00:49:03;7.23;;;4.93;;
13311;SDS011;34033;48.672;9.376;2022-12-29T00:51:48;6.37;;;4.73;;
13311;SDS011;34033;48.672;9.376;2022-12-29T00:54:14;7.20;;;5.10;;
13311;SDS011;34033;48.672;9.376;2022-12-29T00:56:40;7.90;;;4.80;;
13311;SDS011;34033;48.672;9.376;2022-12-29T00:59:07;7.50;;;5.50;;
13311;SDS011;34033;48.672;9.376;2022-12-29T01:01:35;8.20;;;5.63;;
13311;SDS011;34033;48.672;9.376;2022-12-29T01:04:01;10.63;;;7.00;;
13311;SDS011;34033;48.672;9.376;2022-12-29T01:06:28;8.93;;;6.20;;
13311;SDS011;34033;48.672;9.376;2022-12-29T01:08:53;11.03;;;6.63;;
13311;SDS011;34033;48.672;9.376;2022-12-29T01:11:37;11.90;;;6.50;;
13311;SDS011;34033;48.672;9.376;2022-12-29T01:14:04;9.53;;;6.47;;
13311;SDS011;34033;48.672;9.376;2022-12-29T01:16:29;11.17;;;6.83;;
13311;SDS011;34033;48.672;9.376;2022-12-29T01:18:55;9.43;;;6.17;;
13311;SDS011;34033;48.672;9.376;2022-12-29T01:21:20;8.17;;;6.17;;
13311;SDS011;34033;48.672;9.376;2022-12-29T01:23:45;13.33;;;6.10;;
13311;SDS011;34033;48.672;9.376;2022-12-29T01:26:11;9.87;;;6.30;;
13311;SDS011;34033;48.672;9.376;2022-12-29T01:28:38;10.90;;;7.13;;
13311;SDS011;34033;48.672;9.376;2022-12-29T01:31:05;9.10;;;6.20;;
13311;SDS011;34033;48.672;9.376;2022-12-29T01:33:34;9.70;;;6.10;;
13311;SDS011;34033;48.672;9.376;2022-12-29T01:36:10;10.20;;;5.80;;
13311;SDS011;34033;48.672;9.376;2022-12-29T01:38:38;8.43;;;5.70;;
13311;SDS011;34033;48.672;9.376;2022-12-29T01:41:04;8.60;;;4.63;;
13311;SDS011;34033;48.672;9.376;2022-12-29T01:43:44;6.57;;;5.20;;
13311;SDS011;34033;48.672;9.376;2022-12-29T01:48:46;4.57;;;3.70;;
13311;SDS011;34033;48.672;9.376;2022-12-29T01:51:13;4.93;;;3.67;;
13311;SDS011;34033;48.672;9.376;2022-12-29T01:53:40;4.80;;;3.80;;
13311;SDS011;34033;48.672;9.376;2022-12-29T01:56:06;5.90;;;4.00;;
13311;SDS011;34033;48.672;9.376;2022-12-29T01:58:35;5.90;;;4.20;;
13311;SDS011;34033;48.672;9.376;2022-12-29T02:01:04;5.40;;;3.70;;
13311;SDS011;34033;48.672;9.376;2022-12-29T02:03:30;5.20;;;3.73;;
13311;SDS011;34033;48.672;9.376;2022-12-29T02:06:14;4.73;;;3.63;;
13311;SDS011;34033;48.672;9.376;2022-12-29T02:08:52;7.87;;;4.50;;
13311;SDS011;34033;48.672;9.376;2022-12-29T02:11:21;8.77;;;5.00;;
13311;SDS011;34033;48.672;9.376;2022-12-29T02:13:50;8.20;;;5.27;;
13311;SDS011;34033;48.672;9.376;2022-12-29T02:21:45;8.60;;;5.40;;
13311;SDS011;34033;48.672;9.376;2022-12-29T02:38:14;8.53;;;5.10;;
13311;SDS011;34033;48.672;9.376;2022-12-29T02:40:54;9.47;;;5.67;;
13311;SDS011;34033;48.672;9.376;2022-12-29T02:44:10;8.70;;;5.77;;
13311;SDS011;34033;48.672;9.376;2022-12-29T02:46:26;9.60;;;5.77;;
13311;SDS011;34033;48.672;9.376;2022-12-29T02:51:32;8.67;;;5.57;;
13311;SDS011;34033;48.672;9.376;2022-12-29T02:54:02;9.50;;;5.80;;
13311;SDS011;34033;48.672;9.376;2022-12-29T02:56:47;8.07;;;5.73;;
13311;SDS011;34033;48.672;9.376;2022-12-29T02:59:12;8.83;;;5.80;;
13311;SDS011;34033;48.672;9.376;2022-12-29T03:04:48;10.63;;;5.53;;
13311;SDS011;34033;48.672;9.376;2022-12-29T03:07:24;8.13;;;5.80;;
13311;SDS011;34033;48.672;9.376;2022-12-29T03:13:14;8.73;;;5.50;;
13311;SDS011;34033;48.672;9.376;2022-12-29T03:16:11;5.90;;;4.00;;
13311;SDS011;34033;48.672;9.376;2022-12-29T03:18:44;3.10;;;2.60;;
13311;SDS011;34033;48.672;9.376;2022-12-29T03:24:22;1.20;;;1.20;;
13311;SDS011;34033;48.672;9.376;2022-12-29T03:26:53;0.90;;;0.90;;
13311;SDS011;34033;48.672;9.376;2022-12-29T03:29:21;0.90;;;0.80;;
13311;SDS011;34033;48.672;9.376;2022-12-29T03:31:48;2.07;;;1.17;;
13311;SDS011;34033;48.672;9.376;2022-12-29T03:34:16;0.93;;;0.90;;
13311;SDS011;34033;48.672;9.376;2022-12-29T03:36:48;0.77;;;0.73;;
13311;SDS011;34033;48.672;9.376;2022-12-29T03:39:18;1.53;;;0.70;;
13311;SDS011;34033;48.672;9.376;2022-12-29T03:41:47;0.80;;;0.80;;
13311;SDS011;34033;48.672;9.376;2022-12-29T03:44:15;1.67;;;0.83;;
13311;SDS011;34033;48.672;9.376;2022-12-29T03:46:41;0.57;;;0.57;;
13311;SDS011;34033;48.672;9.376;2022-12-29T03:49:06;0.63;;;0.63;;
13311;SDS011;34033;48.672;9.376;2022-12-29T03:51:31;0.60;;;0.60;;
13311;SDS011;34033;48.672;9.376;2022-12-29T03:53:57;1.03;;;0.80;;
13311;SDS011;34033;48.672;9.376;2022-12-29T03:56:22;3.57;;;0.77;;
13311;SDS011;34033;48.672;9.376;2022-12-29T03:58:47;1.50;;;0.80;;
13311;SDS011;34033;48.672;9.376;2022-12-29T04:01:13;0.70;;;0.70;;
13311;SDS011;34033;48.672;9.376;2022-12-29T04:03:38;1.23;;;0.57;;
13311;SDS011;34033;48.672;9.376;2022-12-29T04:06:03;0.40;;;0.40;;
13311;SDS011;34033;48.672;9.376;2022-12-29T04:08:29;0.60;;;0.60;;
13311;SDS011;34033;48.672;9.376;2022-12-29T04:10:54;1.10;;;0.60;;
13311;SDS011;34033;48.672;9.376;2022-12-29T04:13:19;0.70;;;0.70;;
13311;SDS011;34033;48.672;9.376;2022-12-29T04:15:45;1.03;;;0.60;;
13311;SDS011;34033;48.672;9.376;2022-12-29T04:18:11;0.80;;;0.80;;
13311;SDS011;34033;48.672;9.376;2022-12-29T04:20:37;1.43;;;1.00;;
13311;SDS011;34033;48.672;9.376;2022-12-29T04:23:20;0.70;;;0.70;;
13311;SDS011;34033;48.672;9.376;2022-12-29T04:25:46;0.77;;;0.70;;
13311;SDS011;34033;48.672;9.376;2022-12-29T04:28:15;3.03;;;0.90;;
13311;SDS011;34033;48.672;9.376;2022-12-29T04:30:41;1.57;;;0.63;;
13311;SDS011;34033;48.672;9.376;2022-12-29T04:33:07;1.97;;;0.80;;
13311;SDS011;34033;48.672;9.376;2022-12-29T04:35:32;1.33;;;0.70;;
13311;SDS011;34033;48.672;9.376;2022-12-29T04:37:58;0.93;;;0.57;;
13311;SDS011;34033;48.672;9.376;2022-12-29T04:40:23;0.60;;;0.60;;
13311;SDS011;34033;48.672;9.376;2022-12-29T04:42:49;1.17;;;0.70;;
13311;SDS011;34033;48.672;9.376;2022-12-29T04:45:14;0.60;;;0.60;;
13311;SDS011;34033;48.672;9.376;2022-12-29T04:47:40;1.20;;;0.80;;
13311;SDS011;34033;48.672;9.376;2022-12-29T04:50:05;1.07;;;0.80;;
13311;SDS011;34033;48.672;9.376;2022-12-29T04:52:31;1.60;;;0.80;;
13311;SDS011;34033;48.672;9.376;2022-12-29T04:54:56;1.47;;;0.80;;
13311;SDS011;34033;48.672;9.376;2022-12-29T04:57:22;0.77;;;0.77;;
13311;SDS011;34033;48.672;9.376;2022-12-29T04:59:47;0.90;;;0.90;;
13311;SDS011;34033;48.672;9.376;2022-12-29T05:02:12;0.63;;;0.63;;
13311;SDS011;34033;48.672;9.376;2022-12-29T05:04:38;0.70;;;0.70;;
13311;SDS011;34033;48.672;9.376;2022-12-29T05:07:03;4.77;;;0.60;;
13311;SDS011;34033;48.672;9.376;2022-12-29T05:09:28;0.80;;;0.80;;
13311;SDS011;34033;48.672;9.376;2022-12-29T05:11:54;0.70;;;0.70;;
13311;SDS011;34033;48.672;9.376;2022-12-29T05:14:20;1.03;;;0.63;;
13311;SDS011;34033;48.672;9.376;2022-12-29T05:16:45;0.50;;;0.50;;
13311;SDS011;34033;48.672;9.376;2022-12-29T05:19:11;1.70;;;0.80;;
13311;SDS011;34033;48.672;9.376;2022-12-29T05:21:36;0.60;;;0.60;;
13311;SDS011;34033;48.672;9.376;2022-12-29T05:24:01;0.60;;;0.60;;
13311;SDS011;34033;48.672;9.376;2022-12-29T05:26:27;0.70;;;0.70;;
13311;SDS011;34033;48.672;9.376;2022-12-29T05:28:52;0.50;;;0.50;;
13311;SDS011;34033;48.672;9.376;2022-12-29T05:31:17;1.17;;;0.70;;
13311;SDS011;34033;48.672;9.376;2022-12-29T05:33:43;1.07;;;0.90;;
13311;SDS011;34033;48.672;9.376;2022-12-29T05:36:09;0.77;;;0.70;;
13311;SDS011;34033;48.672;9.376;2022-12-29T05:38:39;2.53;;;0.67;;
13311;SDS011;34033;48.672;9.376;2022-12-29T05:41:04;1.67;;;0.87;;
13311;SDS011;34033;48.672;9.376;2022-12-29T05:43:29;1.03;;;0.80;;
13311;SDS011;34033;48.672;9.376;2022-12-29T05:45:55;0.73;;;0.67;;
13311;SDS011;34033;48.672;9.376;2022-12-29T05:48:21;0.97;;;0.87;;
13311;SDS011;34033;48.672;9.376;2022-12-29T05:50:47;2.20;;;1.00;;
13311;SDS011;34033;48.672;9.376;2022-12-29T05:53:13;1.10;;;1.00;;
13311;SDS011;34033;48.672;9.376;2022-12-29T05:55:38;0.73;;;0.73;;
13311;SDS011;34033;48.672;9.376;2022-12-29T05:58:04;0.90;;;0.90;;
13311;SDS011;34033;48.672;9.376;2022-12-29T06:00:29;2.40;;;0.90;;
13311;SDS011;34033;48.672;9.376;2022-12-29T06:02:54;1.97;;;1.27;;
13311;SDS011;34033;48.672;9.376;2022-12-29T06:05:19;1.83;;;1.20;;
13311;SDS011;34033;48.672;9.376;2022-12-29T06:07:45;5.80;;;2.13;;
13311;SDS011;34033;48.672;9.376;2022-12-29T06:10:10;5.83;;;2.03;;
13311;SDS011;34033;48.672;9.376;2022-12-29T06:12:36;1.67;;;1.40;;
13311;SDS011;34033;48.672;9.376;2022-12-29T06:15:01;1.73;;;1.00;;
13311;SDS011;34033;48.672;9.376;2022-12-29T06:17:26;1.83;;;0.80;;
13311;SDS011;34033;48.672;9.376;2022-12-29T06:19:52;0.80;;;0.80;;
13311;SDS011;34033;48.672;9.376;2022-12-29T06:22:17;0.97;;;0.77;;
13311;SDS011;34033;48.672;9.376;2022-12-29T06:24:42;0.80;;;0.80;;
13311;SDS011;34033;48.672;9.376;2022-12-29T06:27:08;1.20;;;0.80;;
13311;SDS011;34033;48.672;9.376;2022-12-29T06:29:33;1.00;;;1.00;;
13311;SDS011;34033;48.672;9.376;2022-12-29T06:31:59;0.77;;;0.77;;
13311;SDS011;34033;48.672;9.376;2022-12-29T06:34:25;3.23;;;1.00;;
13311;SDS011;34033;48.672;9.376;2022-12-29T06:36:50;0.90;;;0.90;;
13311;SDS011;34033;48.672;9.376;2022-12-29T06:39:16;0.93;;;0.93;;
13311;SDS011;34033;48.672;9.376;2022-12-29T06:41:41;1.00;;;1.00;;
13311;SDS011;34033;48.672;9.376;2022-12-29T06:44:06;0.80;;;0.80;;
13311;SDS011;34033;48.672;9.376;2022-12-29T06:46:32;1.10;;;0.90;;
13311;SDS011;34033;48.672;9.376;2022-12-29T06:48:57;0.90;;;0.90;;
13311;SDS011;34033;48.672;9.376;2022-12-29T06:51:22;0.90;;;0.90;;
13311;SDS011;34033;48.672;9.376;2022-12-29T06:53:48;1.10;;;1.00;;
13311;SDS011;34033;48.672;9.376;2022-12-29T06:56:13;1.20;;;1.10;;
13311;SDS011;34033;48.672;9.376;2022-12-29T06:58:38;1.70;;;1.20;;
13311;SDS011;34033;48.672;9.376;2022-12-29T07:01:04;1.40;;;1.30;;
13311;SDS011;34033;48.672;9.376;2022-12-29T07:03:29;2.13;;;1.50;;
13311;SDS011;34033;48.672;9.376;2022-12-29T07:05:55;1.50;;;1.40;;
13311;SDS011;34033;48.672;9.376;2022-12-29T07:08:22;1.80;;;1.20;;
13311;SDS011;34033;48.672;9.376;2022-12-29T07:10:48;2.83;;;1.50;;
13311;SDS011;34033;48.672;9.376;2022-12-29T07:13:13;2.33;;;1.50;;
13311;SDS011;34033;48.672;9.376;2022-12-29T07:15:39;1.40;;;1.30;;
13311;SDS011;34033;48.672;9.376;2022-12-29T07:18:04;3.43;;;1.30;;
13311;SDS011;34033;48.672;9.376;2022-12-29T07:20:30;1.20;;;1.10;;
13311;SDS011;34033;48.672;9.376;2022-12-29T07:22:55;1.43;;;1.17;;
13311;SDS011;34033;48.672;9.376;2022-12-29T07:25:21;1.40;;;1.30;;
13311;SDS011;34033;48.672;9.376;2022-12-29T07:27:46;1.70;;;1.60;;
13311;SDS011;34033;48.672;9.376;2022-12-29T07:30:12;1.70;;;1.60;;
13311;SDS011;34033;48.672;9.376;2022-12-29T07:32:37;2.03;;;1.80;;
13311;SDS011;34033;48.672;9.376;2022-12-29T07:35:03;1.87;;;1.77;;
13311;SDS011;34033;48.672;9.376;2022-12-29T07:37:28;1.80;;;1.67;;
13311;SDS011;34033;48.672;9.376;2022-12-29T07:39:54;1.43;;;1.37;;
13311;SDS011;34033;48.672;9.376;2022-12-29T07:42:19;3.03;;;1.80;;
13311;SDS011;34033;48.672;9.376;2022-12-29T07:44:44;2.37;;;2.17;;
13311;SDS011;34033;48.672;9.376;2022-12-29T07:47:10;5.10;;;2.00;;
13311;SDS011;34033;48.672;9.376;2022-12-29T07:49:35;2.10;;;1.87;;
13311;SDS011;34033;48.672;9.376;2022-12-29T07:52:00;4.70;;;3.17;;
13311;SDS011;34033;48.672;9.376;2022-12-29T07:54:26;2.53;;;2.30;;
13311;SDS011;34033;48.672;9.376;2022-12-29T07:56:51;6.83;;;3.17;;
13311;SDS011;34033;48.672;9.376;2022-12-29T07:59:17;2.63;;;2.23;;
13311;SDS011;34033;48.672;9.376;2022-12-29T08:01:42;2.90;;;2.47;;
13311;SDS011;34033;48.672;9.376;2022-12-29T08:04:08;2.43;;;1.87;;
13311;SDS011;34033;48.672;9.376;2022-12-29T08:06:33;2.47;;;2.27;;
13311;SDS011;34033;48.672;9.376;2022-12-29T08:08:59;2.30;;;1.93;;
13311;SDS011;34033;48.672;9.376;2022-12-29T08:11:25;1.97;;;1.87;;
13311;SDS011;34033;48.672;9.376;2022-12-29T08:13:51;4.87;;;2.20;;
13311;SDS011;34033;48.672;9.376;2022-12-29T08:16:16;3.60;;;2.50;;
13311;SDS011;34033;48.672;9.376;2022-12-29T08:18:42;3.03;;;2.50;;
13311;SDS011;34033;48.672;9.376;2022-12-29T08:21:07;7.83;;;3.57;;
13311;SDS011;34033;48.672;9.376;2022-12-29T08:23:32;8.30;;;3.83;;
13311;SDS011;34033;48.672;9.376;2022-12-29T08:26:02;7.87;;;4.60;;
13311;SDS011;34033;48.672;9.376;2022-12-29T08:28:28;4.87;;;3.53;;
13311;SDS011;34033;48.672;9.376;2022-12-29T08:30:56;5.07;;;3.70;;
13311;SDS011;34033;48.672;9.376;2022-12-29T08:33:23;6.80;;;4.17;;
13311;SDS011;34033;48.672;9.376;2022-12-29T08:35:49;5.10;;;3.63;;
13311;SDS011;34033;48.672;9.376;2022-12-29T08:38:14;3.83;;;3.07;;
13311;SDS011;34033;48.672;9.376;2022-12-29T08:40:39;3.00;;;2.70;;
13311;SDS011;34033;48.672;9.376;2022-12-29T08:43:05;5.20;;;2.77;;
13311;SDS011;34033;48.672;9.376;2022-12-29T08:45:30;3.67;;;2.80;;
13311;SDS011;34033;48.672;9.376;2022-12-29T08:47:56;3.80;;;2.90;;
13311;SDS011;34033;48.672;9.376;2022-12-29T08:50:21;4.87;;;2.77;;
13311;SDS011;34033;48.672;9.376;2022-12-29T08:52:47;3.57;;;2.83;;
13311;SDS011;34033;48.672;9.376;2022-12-29T08:55:12;3.37;;;2.63;;
13311;SDS011;34033;48.672;9.376;2022-12-29T08:57:37;3.77;;;2.90;;
13311;SDS011;34033;48.672;9.376;2022-12-29T09:00:03;2.80;;;2.40;;
13311;SDS011;34033;48.672;9.376;2022-12-29T09:02:29;3.30;;;3.00;;
13311;SDS011;34033;48.672;9.376;2022-12-29T09:04:54;4.27;;;3.17;;
13311;SDS011;34033;48.672;9.376;2022-12-29T09:07:22;3.87;;;3.20;;
13311;SDS011;34033;48.672;9.376;2022-12-29T09:09:47;4.83;;;3.30;;
13311;SDS011;34033;48.672;9.376;2022-12-29T09:12:12;3.10;;;2.80;;
13311;SDS011;34033;48.672;9.376;2022-12-29T09:14:38;6.23;;;3.47;;
13311;SDS011;34033;48.672;9.376;2022-12-29T09:17:03;5.63;;;3.03;;
13311;SDS011;34033;48.672;9.376;2022-12-29T09:19:47;5.77;;;2.90;;
13311;SDS011;34033;48.672;9.376;2022-12-29T09:22:12;4.17;;;2.67;;
13311;SDS011;34033;48.672;9.376;2022-12-29T09:24:37;6.30;;;3.67;;
13311;SDS011;34033;48.672;9.376;2022-12-29T09:27:03;4.77;;;3.60;;
13311;SDS011;34033;48.672;9.376;2022-12-29T09:29:28;6.17;;;4.00;;
13311;SDS011;34033;48.672;9.376;2022-12-29T09:31:53;4.60;;;3.73;;
13311;SDS011;34033;48.672;9.376;2022-12-29T09:34:19;6.37;;;4.00;;
13311;SDS011;34033;48.672;9.376;2022-12-29T09:36:44;4.93;;;4.17;;
13311;SDS011;34033;48.672;9.376;2022-12-29T09:39:09;6.00;;;4.03;;
13311;SDS011;34033;48.672;9.376;2022-12-29T09:47:51;5.13;;;3.10;;
13311;SDS011;34033;48.672;9.376;2022-12-29T09:52:50;2.70;;;1.80;;
13311;SDS011;34033;48.672;9.376;2022-12-29T09:55:23;2.10;;;1.50;;
13311;SDS011;34033;48.672;9.376;2022-12-29T09:57:56;1.63;;;1.40;;
13311;SDS011;34033;48.672;9.376;2022-12-29T10:00:36;1.00;;;1.00;;
13311;SDS011;34033;48.672;9.376;2022-12-29T10:03:23;0.90;;;0.90;;
13311;SDS011;34033;48.672;9.376;2022-12-29T10:12:11;0.90;;;0.90;;
13311;SDS011;34033;48.672;9.376;2022-12-29T10:22:38;1.40;;;0.97;;
13311;SDS011;34033;48.672;9.376;2022-12-29T10:25:25;1.63;;;1.07;;
13311;SDS011;34033;48.672;9.376;2022-12-29T10:27:51;1.27;;;1.00;;
13311;SDS011;34033;48.672;9.376;2022-12-29T10:30:21;2.17;;;0.90;;
13311;SDS011;34033;48.672;9.376;2022-12-29T10:32:54;0.70;;;0.70;;
13311;SDS011;34033;48.672;9.376;2022-12-29T10:35:29;0.80;;;0.80;;
13311;SDS011;34033;48.672;9.376;2022-12-29T10:38:03;1.93;;;0.90;;
13311;SDS011;34033;48.672;9.376;2022-12-29T10:40:45;2.10;;;1.07;;
13311;SDS011;34033;48.672;9.376;2022-12-29T10:43:24;1.00;;;1.00;;
13311;SDS011;34033;48.672;9.376;2022-12-29T10:45:52;0.83;;;0.83;;
13311;SDS011;34033;48.672;9.376;2022-12-29T10:48:35;1.13;;;0.70;;
13311;SDS011;34033;48.672;9.376;2022-12-29T10:51:02;2.63;;;0.90;;
13311;SDS011;34033;48.672;9.376;2022-12-29T10:53:35;1.10;;;0.90;;
13311;SDS011;34033;48.672;9.376;2022-12-29T10:56:06;0.97;;;0.80;;
13311;SDS011;34033;48.672;9.376;2022-12-29T10:58:43;0.70;;;0.70;;
13311;SDS011;34033;48.672;9.376;2022-12-29T11:01:13;2.93;;;0.90;;
13311;SDS011;34033;48.672;9.376;2022-12-29T11:06:42;0.80;;;0.80;;
13311;SDS011;34033;48.672;9.376;2022-12-29T11:09:09;0.97;;;0.80;;
13311;SDS011;34033;48.672;9.376;2022-12-29T11:11:40;3.60;;;0.80;;
13311;SDS011;34033;48.672;9.376;2022-12-29T11:16:33;1.83;;;0.87;;
13311;SDS011;34033;48.672;9.376;2022-12-29T11:19:00;1.60;;;1.50;;
13311;SDS011;34033;48.672;9.376;2022-12-29T11:24:26;0.87;;;0.87;;
13311;SDS011;34033;48.672;9.376;2022-12-29T11:26:53;2.27;;;1.00;;
13311;SDS011;34033;48.672;9.376;2022-12-29T11:29:36;0.90;;;0.90;;
13311;SDS011;34033;48.672;9.376;2022-12-29T11:32:10;1.03;;;0.70;;
13311;SDS011;34033;48.672;9.376;2022-12-29T11:34:46;1.03;;;1.00;;
13311;SDS011;34033;48.672;9.376;2022-12-29T11:37:16;0.90;;;0.90;;
13311;SDS011;34033;48.672;9.376;2022-12-29T11:42:40;0.80;;;0.80;;
13311;SDS011;34033;48.672;9.376;2022-12-29T11:45:16;0.70;;;0.70;;
13311;SDS011;34033;48.672;9.376;2022-12-29T11:47:45;5.03;;;1.30;;
13311;SDS011;34033;48.672;9.376;2022-12-29T11:50:30;1.23;;;0.80;;
13311;SDS011;34033;48.672;9.376;2022-12-29T11:53:08;0.90;;;0.80;;
13311;SDS011;34033;48.672;9.376;2022-12-29T11:55:39;0.60;;;0.60;;
13311;SDS011;34033;48.672;9.376;2022-12-29T11:58:05;1.30;;;1.20;;
13311;SDS011;34033;48.672;9.376;2022-12-29T12:00:32;1.67;;;1.10;;
13311;SDS011;34033;48.672;9.376;2022-12-29T12:03:05;1.13;;;1.00;;
13311;SDS011;34033;48.672;9.376;2022-12-29T12:05:44;1.37;;;0.90;;
13311;SDS011;34033;48.672;9.376;2022-12-29T12:08:18;0.87;;;0.83;;
13311;SDS011;34033;48.672;9.376;2022-12-29T12:16:49;0.73;;;0.70;;
13311;SDS011;34033;48.672;9.376;2022-12-29T12:22:12;1.80;;;0.93;;
13311;SDS011;34033;48.672;9.376;2022-12-29T12:24:57;1.33;;;1.10;;
13311;SDS011;34033;48.672;9.376;2022-12-29T12:27:36;1.00;;;1.00;;
13311;SDS011;34033;48.672;9.376;2022-12-29T12:30:15;0.87;;;0.87;;
13311;SDS011;34033;48.672;9.376;2022-12-29T12:35:22;3.33;;;1.10;;
13311;SDS011;34033;48.672;9.376;2022-12-29T13:02:15;1.17;;;0.90;;
13311;SDS011;34033;48.672;9.376;2022-12-29T13:04:52;0.70;;;0.70;;
13311;SDS011;34033;48.672;9.376;2022-12-29T13:07:38;2.20;;;0.90;;
13311;SDS011;34033;48.672;9.376;2022-12-29T13:18:18;2.87;;;0.90;;
13311;SDS011;34033;48.672;9.376;2022-12-29T13:23:33;1.27;;;0.87;;
13311;SDS011;34033;48.672;9.376;2022-12-29T13:26:21;0.90;;;0.90;;
13311;SDS011;34033;48.672;9.376;2022-12-29T13:28:53;2.40;;;1.10;;
13311;SDS011;34033;48.672;9.376;2022-12-29T13:36:40;0.87;;;0.80;;
13311;SDS011;34033;48.672;9.376;2022-12-29T13:41:51;2.83;;;1.30;;
13311;SDS011;34033;48.672;9.376;2022-12-29T13:44:28;1.00;;;1.00;;
13311;SDS011;34033;48.672;9.376;2022-12-29T13:46:59;1.60;;;1.20;;
13311;SDS011;34033;48.672;9.376;2022-12-29T13:49:29;1.40;;;1.30;;
13311;SDS011;34033;48.672;9.376;2022-12-29T13:51:57;1.27;;;1.17;;
13311;SDS011;34033;48.672;9.376;2022-12-29T13:54:39;1.03;;;1.03;;
13311;SDS011;34033;48.672;9.376;2022-12-29T14:00:02;1.53;;;1.10;;
13311;SDS011;34033;48.672;9.376;2022-12-29T14:05:31;1.10;;;1.00;;
13311;SDS011;34033;48.672;9.376;2022-12-29T14:08:01;1.37;;;1.27;;
13311;SDS011;34033;48.672;9.376;2022-12-29T14:13:02;1.30;;;1.20;;
13311;SDS011;34033;48.672;9.376;2022-12-29T14:15:39;1.20;;;1.10;;
13311;SDS011;34033;48.672;9.376;2022-12-29T14:18:19;1.83;;;1.20;;
13311;SDS011;34033;48.672;9.376;2022-12-29T14:20:52;1.23;;;1.13;;
13311;SDS011;34033;48.672;9.376;2022-12-29T14:28:40;1.33;;;1.20;;
13311;SDS011;34033;48.672;9.376;2022-12-29T14:33:39;2.07;;;1.30;;
13311;SDS011;34033;48.672;9.376;2022-12-29T14:36:21;0.90;;;0.90;;
13311;SDS011;34033;48.672;9.376;2022-12-29T14:38:51;1.10;;;1.10;;
13311;SDS011;34033;48.672;9.376;2022-12-29T14:43:57;1.53;;;1.40;;
13311;SDS011;34033;48.672;9.376;2022-12-29T14:46:44;0.83;;;0.83;;
13311;SDS011;34033;48.672;9.376;2022-12-29T14:49:15;1.33;;;1.23;;
13311;SDS011;34033;48.672;9.376;2022-12-29T14:51:43;1.20;;;1.20;;
13311;SDS011;34033;48.672;9.376;2022-12-29T14:57:04;1.83;;;1.43;;
13311;SDS011;34033;48.672;9.376;2022-12-29T14:59:32;1.80;;;1.50;;
13311;SDS011;34033;48.672;9.376;2022-12-29T15:02:01;3.87;;;1.50;;
13311;SDS011;34033;48.672;9.376;2022-12-29T15:04:33;1.90;;;1.30;;
13311;SDS011;34033;48.672;9.376;2022-12-29T15:07:00;1.47;;;1.30;;
13311;SDS011;34033;48.672;9.376;2022-12-29T15:09:45;2.07;;;1.60;;
13311;SDS011;34033;48.672;9.376;2022-12-29T15:12:20;2.23;;;1.50;;
13311;SDS011;34033;48.672;9.376;2022-12-29T15:17:30;2.30;;;1.90;;
13311;SDS011;34033;48.672;9.376;2022-12-29T15:19:59;3.20;;;2.10;;
13311;SDS011;34033;48.672;9.376;2022-12-29T15:22:26;2.17;;;1.67;;
13311;SDS011;34033;48.672;9.376;2022-12-29T15:24:53;4.43;;;2.30;;
13311;SDS011;34033;48.672;9.376;2022-12-29T15:27:21;10.07;;;4.30;;
13311;SDS011;34033;48.672;9.376;2022-12-29T15:29:55;2.00;;;1.80;;
13311;SDS011;34033;48.672;9.376;2022-12-29T15:32:27;5.77;;;1.90;;
13311;SDS011;34033;48.672;9.376;2022-12-29T15:34:54;3.40;;;2.03;;
13311;SDS011;34033;48.672;9.376;2022-12-29T15:39:53;3.67;;;1.93;;
13311;SDS011;34033;48.672;9.376;2022-12-29T15:42:27;2.20;;;1.90;;
13311;SDS011;34033;48.672;9.376;2022-12-29T15:45:16;4.13;;;1.67;;
13311;SDS011;34033;48.672;9.376;2022-12-29T15:47:42;2.37;;;1.90;;
13311;SDS011;34033;48.672;9.376;2022-12-29T15:52:56;2.07;;;1.77;;
13311;SDS011;34033;48.672;9.376;2022-12-29T15:55:32;4.47;;;2.80;;
13311;SDS011;34033;48.672;9.376;2022-12-29T15:58:01;2.83;;;1.80;;
13311;SDS011;34033;48.672;9.376;2022-12-29T16:02:56;2.33;;;2.00;;
13311;SDS011;34033;48.672;9.376;2022-12-29T16:05:31;1.70;;;1.60;;
13311;SDS011;34033;48.672;9.376;2022-12-29T16:08:00;1.90;;;1.80;;
13311;SDS011;34033;48.672;9.376;2022-12-29T16:10:28;2.30;;;2.00;;
13311;SDS011;34033;48.672;9.376;2022-12-29T16:13:16;2.00;;;1.90;;
13311;SDS011;34033;48.672;9.376;2022-12-29T16:15:48;2.53;;;2.10;;
13311;SDS011;34033;48.672;9.376;2022-12-29T16:18:24;3.33;;;2.17;;
13311;SDS011;34033;48.672;9.376;2022-12-29T16:21:01;3.23;;;2.50;;
13311;SDS011;34033;48.672;9.376;2022-12-29T16:23:29;3.17;;;2.37;;
13311;SDS011;34033;48.672;9.376;2022-12-29T16:25:57;3.70;;;2.87;;
13311;SDS011;34033;48.672;9.376;2022-12-29T16:28:23;4.97;;;3.27;;
13311;SDS011;34033;48.672;9.376;2022-12-29T16:31:04;4.50;;;2.83;;
13311;SDS011;34033;48.672;9.376;2022-12-29T16:33:38;4.40;;;3.30;;
13311;SDS011;34033;48.672;9.376;2022-12-29T16:41:50;8.67;;;5.13;;
13311;SDS011;34033;48.672;9.376;2022-12-29T16:46:43;9.83;;;6.23;;
13311;SDS011;34033;48.672;9.376;2022-12-29T16:49:25;9.93;;;7.00;;
13311;SDS011;34033;48.672;9.376;2022-12-29T16:51:51;8.40;;;5.93;;
13311;SDS011;34033;48.672;9.376;2022-12-29T16:54:20;8.90;;;5.57;;
13311;SDS011;34033;48.672;9.376;2022-12-29T16:56:48;8.27;;;5.40;;
13311;SDS011;34033;48.672;9.376;2022-12-29T17:01:55;7.50;;;5.27;;
13311;SDS011;34033;48.672;9.376;2022-12-29T17:04:22;6.87;;;5.57;;
13311;SDS011;34033;48.672;9.376;2022-12-29T17:06:48;7.77;;;5.70;;
13311;SDS011;34033;48.672;9.376;2022-12-29T17:09:23;12.10;;;5.60;;
13311;SDS011;34033;48.672;9.376;2022-12-29T17:11:52;12.10;;;5.60;;
13311;SDS011;34033;48.672;9.376;2022-12-29T17:14:27;8.37;;;5.87;;
13311;SDS011;34033;48.672;9.376;2022-12-29T17:16:59;9.50;;;6.63;;
13311;SDS011;34033;48.672;9.376;2022-12-29T17:19:34;6.83;;;5.70;;
13311;SDS011;34033;48.672;9.376;2022-12-29T17:22:02;11.73;;;6.30;;
13311;SDS011;34033;48.672;9.376;2022-12-29T17:24:33;7.03;;;5.17;;
13311;SDS011;34033;48.672;9.376;2022-12-29T17:27:00;15.00;;;10.20;;
13311;SDS011;34033;48.672;9.376;2022-12-29T17:29:33;15.23;;;10.43;;
13311;SDS011;34033;48.672;9.376;2022-12-29T17:32:02;10.97;;;7.97;;
13311;SDS011;34033;48.672;9.376;2022-12-29T17:34:29;9.57;;;7.13;;
13311;SDS011;34033;48.672;9.376;2022-12-29T17:36:56;10.97;;;7.30;;
13311;SDS011;34033;48.672;9.376;2022-12-29T17:39:21;11.27;;;7.07;;
13311;SDS011;34033;48.672;9.376;2022-12-29T17:41:46;8.53;;;6.20;;
13311;SDS011;34033;48.672;9.376;2022-12-29T17:44:16;7.60;;;5.60;;
13311;SDS011;34033;48.672;9.376;2022-12-29T17:46:44;5.40;;;4.07;;
13311;SDS011;34033;48.672;9.376;2022-12-29T17:49:14;3.57;;;3.27;;